Time;durP1;ratioP1;P1;durP2;ratioP2;P2;SDS_P1;SDS_P2;PMS_P1;PMS_P2;Temp;Humidity;BMP_temperature;BMP_pressure;BME280_temperature;BME280_humidity;BME280_pressure;Samples;Min_cycle;Max_cycle;Signal;HPM_P1;HPM_P2
2021/06/29 00:00:59;;;;;;;3.15;2.45;;;;;;;18.60;48.73;95338.84;5074533;28;20457;-83
2021/06/29 00:03:25;;;;;;;2.35;2.20;;;;;;;18.55;49.05;95340.34;5038024;28;20100;-82
2021/06/29 00:05:50;;;;;;;2.40;2.20;;;;;;;18.42;49.24;95333.34;5042643;28;20787;-82
2021/06/29 00:08:16;;;;;;;2.92;2.60;;;;;;;18.41;49.36;95338.94;5037506;28;20101;-82
2021/06/29 00:10:41;;;;;;;4.15;3.15;;;;;;;18.35;49.44;95338.00;5060886;28;20108;-82
2021/06/29 00:13:07;;;;;;;4.30;2.50;;;;;;;18.35;49.64;95338.00;5046965;28;20112;-82
2021/06/29 00:15:32;;;;;;;3.33;2.70;;;;;;;18.29;50.05;95336.28;5037480;28;20108;-82
2021/06/29 00:17:58;;;;;;;5.50;2.88;;;;;;;18.23;49.85;95332.66;5048045;28;20084;-82
2021/06/29 00:20:24;;;;;;;3.83;3.20;;;;;;;18.02;49.78;95336.72;5053545;28;20101;-82
2021/06/29 00:22:49;;;;;;;3.58;2.92;;;;;;;18.12;49.77;95336.16;5080839;28;20080;-82
2021/06/29 00:25:16;;;;;;;4.20;2.80;;;;;;;18.18;50.51;95343.28;5036165;28;20083;-82
2021/06/29 00:27:42;;;;;;;5.72;3.28;;;;;;;18.16;50.11;95346.22;5054895;28;20168;-82
2021/06/29 00:30:08;;;;;;;4.57;3.05;;;;;;;18.00;50.63;95344.22;5063979;28;20608;-82
2021/06/29 00:32:34;;;;;;;5.07;3.08;;;;;;;17.86;50.77;95346.28;5044084;28;20233;-83
2021/06/29 00:34:59;;;;;;;3.28;2.70;;;;;;;17.93;51.06;95341.63;5052481;28;20117;-83
2021/06/29 00:37:25;;;;;;;5.07;2.70;;;;;;;18.05;50.51;95345.16;5060771;28;20545;-82
2021/06/29 00:39:50;;;;;;;7.18;2.80;;;;;;;18.05;50.96;95337.06;5032665;28;20496;-82
2021/06/29 00:42:16;;;;;;;3.38;3.08;;;;;;;17.99;50.64;95326.41;5036631;28;20113;-83
2021/06/29 00:44:41;;;;;;;5.25;3.10;;;;;;;17.73;51.33;95334.66;5070296;28;20593;-83
2021/06/29 00:47:10;;;;;;;3.38;3.00;;;;;;;17.88;50.77;95328.84;5036334;28;20170;-83
2021/06/29 00:49:36;;;;;;;4.22;2.97;;;;;;;18.01;50.75;95330.50;5039095;28;20070;-82
2021/06/29 00:52:02;;;;;;;4.72;3.10;;;;;;;17.85;51.26;95329.31;5042737;28;20182;-82
2021/06/29 00:54:28;;;;;;;5.43;3.45;;;;;;;17.83;51.26;95322.50;5069882;28;20088;-82
2021/06/29 00:56:53;;;;;;;5.20;3.22;;;;;;;17.88;51.55;95328.84;5038683;28;20101;-82
2021/06/29 00:59:18;;;;;;;4.25;3.60;;;;;;;17.88;51.35;95328.06;5069387;28;20503;-83
2021/06/29 01:01:44;;;;;;;5.13;3.50;;;;;;;17.83;51.42;95325.19;5035035;28;20112;-82
2021/06/29 01:04:09;;;;;;;4.00;3.40;;;;;;;17.77;51.45;95329.63;5041963;28;20466;-82
2021/06/29 01:06:37;;;;;;;4.68;3.25;;;;;;;17.77;51.83;95318.84;5053883;28;20207;-82
2021/06/29 01:09:02;;;;;;;3.38;3.08;;;;;;;17.77;51.84;95327.75;5042993;28;20108;-83
2021/06/29 01:11:28;;;;;;;8.88;4.18;;;;;;;17.78;51.26;95317.81;5044590;28;20101;-82
2021/06/29 01:13:53;;;;;;;7.32;4.78;;;;;;;17.54;52.38;95321.28;5070822;28;20146;-82
2021/06/29 01:16:19;;;;;;;4.10;3.70;;;;;;;17.62;51.84;95317.44;5053786;28;20139;-82
2021/06/29 01:18:44;;;;;;;10.45;4.22;;;;;;;17.65;52.10;95314.25;5069604;28;20103;-81
2021/06/29 01:21:17;;;;;;;4.43;3.20;;;;;;;17.48;52.15;95314.13;5043922;28;20554;-82
2021/06/29 01:23:48;;;;;;;6.15;3.90;;;;;;;17.28;52.73;95309.03;5050050;28;20565;-81
2021/06/29 01:26:19;;;;;;;6.00;3.40;;;;;;;17.43;52.30;95305.91;5044935;28;20572;-81
2021/06/29 01:31:29;;;;;;;6.15;3.92;;;;;;;17.49;51.81;95314.94;5075145;28;20104;-82
2021/06/29 01:33:54;;;;;;;6.70;4.10;;;;;;;17.38;51.98;95308.47;5048279;28;20089;-81
2021/06/29 01:36:21;;;;;;;4.07;3.55;;;;;;;17.39;51.76;95304.72;5053108;28;20134;-82
2021/06/29 01:38:47;;;;;;;11.87;3.90;;;;;;;17.24;52.16;95307.84;5078886;28;20091;-82
2021/06/29 01:41:13;;;;;;;9.02;4.10;;;;;;;17.03;52.30;95302.69;5044843;28;20573;-82
2021/06/29 01:43:47;;;;;;;5.30;3.60;;;;;;;17.08;52.11;95299.34;5066807;28;20124;-81
2021/06/29 01:46:13;;;;;;;3.38;3.05;;;;;;;17.10;52.03;95294.53;5056495;28;20450;-82
2021/06/29 01:48:51;;;;;;;6.32;3.92;;;;;;;16.89;52.37;95299.38;5039845;28;20578;-82
2021/06/29 01:51:17;;;;;;;4.15;3.60;;;;;;;16.82;52.74;95293.25;5066350;28;20104;-82
2021/06/29 01:53:45;;;;;;;5.65;3.40;;;;;;;16.63;53.22;95301.31;5036396;28;20088;-81
2021/06/29 01:56:17;;;;;;;8.40;4.45;;;;;;;16.34;53.76;95301.00;5054524;28;20433;-81
2021/06/29 01:58:51;;;;;;;5.45;3.97;;;;;;;15.66;54.34;95300.78;5046083;28;20088;-82
2021/06/29 02:01:17;;;;;;;4.93;3.72;;;;;;;15.55;54.55;95299.59;5070629;28;20604;-82
2021/06/29 02:03:42;;;;;;;7.18;4.15;;;;;;;15.75;54.54;95299.44;5064198;28;20109;-80
2021/06/29 02:06:08;;;;;;;12.23;4.45;;;;;;;15.90;54.12;95292.13;5036686;28;20170;-80
2021/06/29 02:08:33;;;;;;;5.88;4.10;;;;;;;16.07;53.50;95284.31;5071918;28;20108;-80
2021/06/29 02:10:59;;;;;;;4.00;3.60;;;;;;;16.15;52.61;95277.84;5070368;28;20076;-81
2021/06/29 02:13:24;;;;;;;5.68;4.00;;;;;;;16.23;53.04;95288.31;5046919;28;20073;-81
2021/06/29 02:15:50;;;;;;;6.75;3.70;;;;;;;16.28;52.63;95279.59;5054309;28;20107;-81
2021/06/29 02:18:15;;;;;;;5.97;3.60;;;;;;;16.32;52.56;95281.56;5063712;28;20096;-81
2021/06/29 02:20:41;;;;;;;4.47;3.63;;;;;;;16.36;51.97;95282.00;5070910;28;20123;-81
2021/06/29 02:23:06;;;;;;;4.13;3.35;;;;;;;16.43;51.72;95288.13;5049579;28;20085;-80
2021/06/29 02:25:32;;;;;;;7.28;3.70;;;;;;;16.36;51.68;95295.44;5036178;28;20077;-80
2021/06/29 02:27:57;;;;;;;6.13;3.42;;;;;;;16.23;51.41;95296.34;5048412;28;20516;-80
2021/06/29 02:30:23;;;;;;;6.63;3.70;;;;;;;16.22;51.86;95287.47;5068645;28;20085;-81
2021/06/29 02:32:48;;;;;;;5.45;3.75;;;;;;;16.30;51.90;95280.16;5069056;28;20306;-81
2021/06/29 02:35:14;;;;;;;7.07;3.35;;;;;;;16.32;51.83;95280.78;5081011;28;20097;-81
2021/06/29 02:37:39;;;;;;;30.02;4.90;;;;;;;16.28;52.09;95276.91;5086333;28;20077;-81
2021/06/29 02:40:06;;;;;;;19.35;4.47;;;;;;;16.20;52.49;95278.81;5061103;28;20105;-80
2021/06/29 02:42:31;;;;;;;4.85;4.30;;;;;;;16.21;52.01;95277.78;5039205;28;20105;-80
2021/06/29 02:45:05;;;;;;;4.38;3.65;;;;;;;16.16;51.74;95280.31;5067672;28;20117;-80
2021/06/29 02:47:30;;;;;;;9.68;4.22;;;;;;;15.97;52.50;95263.34;5056806;28;20105;-81
2021/06/29 02:49:56;;;;;;;8.73;3.72;;;;;;;15.95;52.49;95258.19;5067425;28;20073;-81
2021/06/29 02:52:21;;;;;;;4.53;4.13;;;;;;;15.86;52.93;95263.03;5063633;28;20116;-81
2021/06/29 02:54:47;;;;;;;4.63;3.95;;;;;;;15.82;53.00;95259.16;5035706;28;20091;-80
2021/06/29 02:57:12;;;;;;;12.40;3.88;;;;;;;15.96;51.96;95257.16;5066469;28;20485;-80
2021/06/29 02:59:38;;;;;;;5.28;3.92;;;;;;;15.99;51.93;95266.63;5044341;28;20105;-81
2021/06/29 03:02:03;;;;;;;53.83;6.13;;;;;;;15.86;52.07;95259.53;5063773;28;20549;-81
2021/06/29 03:04:29;;;;;;;13.77;4.90;;;;;;;15.69;53.29;95252.03;5072691;28;20105;-81
2021/06/29 03:06:54;;;;;;;5.82;4.25;;;;;;;15.72;53.41;95245.41;5063388;28;20074;-81
2021/06/29 03:09:19;;;;;;;8.10;4.68;;;;;;;15.61;53.77;95246.97;5029431;28;20503;-81
2021/06/29 03:11:45;;;;;;;4.80;4.30;;;;;;;15.52;53.85;95234.81;5034252;28;20109;-82
2021/06/29 03:14:10;;;;;;;7.20;4.40;;;;;;;15.54;54.25;95232.75;5035823;28;20080;-81
2021/06/29 03:16:36;;;;;;;7.80;4.10;;;;;;;15.63;54.33;95230.66;5053990;28;20096;-81
2021/06/29 03:19:02;;;;;;;7.25;4.50;;;;;;;15.70;53.71;95240.25;5077572;28;20138;-82
2021/06/29 03:21:27;;;;;;;9.30;4.90;;;;;;;15.76;53.80;95254.66;5041505;28;20101;-81
2021/06/29 03:23:53;;;;;;;5.85;4.57;;;;;;;15.87;53.88;95261.16;5038852;28;20109;-82
2021/06/29 03:26:18;;;;;;;7.85;5.00;;;;;;;16.00;52.90;95263.75;5072952;28;20180;-81
2021/06/29 03:28:44;;;;;;;5.53;4.20;;;;;;;16.20;52.34;95272.63;5072542;28;20108;-81
2021/06/29 03:31:09;;;;;;;7.68;4.40;;;;;;;16.27;52.13;95273.38;5048951;28;20073;-81
2021/06/29 03:33:35;;;;;;;6.65;4.68;;;;;;;16.32;52.07;95264.66;5059443;28;20088;-81
2021/06/29 03:36:00;;;;;;;5.82;4.40;;;;;;;16.30;52.17;95262.19;5029081;28;20104;-82
2021/06/29 03:38:26;;;;;;;10.23;4.00;;;;;;;16.23;52.53;95248.84;5033103;28;20095;-81
2021/06/29 03:40:51;;;;;;;8.43;4.47;;;;;;;15.90;52.71;95239.25;5072444;28;20203;-82
2021/06/29 03:43:17;;;;;;;4.85;3.90;;;;;;;15.99;52.82;95240.63;5054552;28;20135;-82
2021/06/29 03:45:42;;;;;;;6.28;3.70;;;;;;;16.18;52.49;95251.38;5028062;28;20093;-82
2021/06/29 03:48:08;;;;;;;4.60;4.20;;;;;;;16.33;52.34;95252.88;5053185;28;20578;-82
2021/06/29 03:50:34;;;;;;;5.55;3.33;;;;;;;16.32;52.35;95260.09;5069807;28;20107;-82
2021/06/29 03:52:59;;;;;;;5.72;3.95;;;;;;;16.33;52.22;95258.25;5059567;28;20507;-82
2021/06/29 03:55:25;;;;;;;6.53;4.65;;;;;;;16.39;52.43;95254.69;5063221;28;20117;-81
2021/06/29 03:57:50;;;;;;;4.65;3.67;;;;;;;16.53;52.15;95244.63;5050001;28;20077;-82
2021/06/29 04:00:16;;;;;;;4.10;3.30;;;;;;;16.55;51.99;95247.09;5079603;28;20566;-81
2021/06/29 04:02:41;;;;;;;4.43;3.35;;;;;;;16.62;52.08;95254.00;5062007;28;20188;-81
2021/06/29 04:05:07;;;;;;;5.30;3.28;;;;;;;16.79;51.57;95247.19;5043591;28;20109;-82
2021/06/29 04:07:33;;;;;;;4.72;3.50;;;;;;;16.94;51.37;95249.47;5050928;28;20215;-82
2021/06/29 04:09:59;;;;;;;6.88;3.70;;;;;;;17.02;51.43;95246.44;5039919;28;20073;-81
2021/06/29 04:12:26;;;;;;;3.70;3.25;;;;;;;17.05;51.12;95248.69;5064466;28;20121;-81
2021/06/29 04:14:51;;;;;;;;;;;;;;;16.95;51.31;95238.50;5041537;28;20081;-82
2021/06/29 04:17:17;;;;;;;5.13;3.30;;;;;;;17.27;50.48;95232.88;5059406;28;19980;-81
2021/06/29 04:19:42;;;;;;;6.38;2.92;;;;;;;17.25;50.49;95228.78;5035699;28;20158;-81
2021/06/29 04:22:08;;;;;;;5.57;3.10;;;;;;;17.19;51.05;95227.00;5035669;28;20094;-82
2021/06/29 04:24:34;;;;;;;5.97;3.05;;;;;;;17.19;51.16;95227.00;5043205;28;20097;-81
2021/06/29 04:26:59;;;;;;;3.88;3.10;;;;;;;17.43;50.38;95217.13;5066644;28;20077;-81
2021/06/29 04:29:25;;;;;;;5.82;2.80;;;;;;;17.34;51.01;95221.22;5064272;28;20065;-81
2021/06/29 04:31:50;;;;;;;8.48;3.08;;;;;;;17.37;50.75;95213.47;5069455;28;20188;-81
2021/06/29 04:34:16;;;;;;;3.50;2.75;;;;;;;17.55;50.53;95214.47;5072328;28;20088;-81
2021/06/29 04:36:41;;;;;;;3.20;2.65;;;;;;;17.69;50.17;95211.53;5043663;28;20113;-81
2021/06/29 04:39:06;;;;;;;3.67;2.70;;;;;;;17.70;50.54;95199.69;5066107;28;20112;-82
2021/06/29 04:41:33;;;;;;;3.03;2.70;;;;;;;17.78;50.26;95194.78;5054575;28;20105;-81
2021/06/29 04:43:58;;;;;;;3.42;2.80;;;;;;;17.89;49.80;95197.75;5052886;28;20121;-81
2021/06/29 04:46:24;;;;;;;2.90;2.70;;;;;;;17.97;49.90;95202.78;5072339;28;20088;-81
2021/06/29 04:48:49;;;;;;;3.38;2.80;;;;;;;18.06;49.88;95200.56;5070689;28;20108;-81
2021/06/29 04:51:15;;;;;;;3.92;2.80;;;;;;;18.21;49.28;95204.59;5037383;28;20101;-81
2021/06/29 04:53:40;;;;;;;3.90;3.50;;;;;;;18.15;49.11;95209.09;5036291;28;20131;-81
2021/06/29 04:56:16;;;;;;;3.05;2.70;;;;;;;18.02;49.73;95213.66;5056195;28;20101;-81
2021/06/29 04:58:57;;;;;;;4.10;2.80;;;;;;;18.21;49.15;95210.81;5064865;28;20077;-81
2021/06/29 05:01:23;;;;;;;2.85;2.50;;;;;;;18.26;49.41;95212.81;5059464;28;20109;-80
2021/06/29 05:03:49;;;;;;;2.90;2.60;;;;;;;18.35;48.38;95215.97;5045256;28;20105;-80
2021/06/29 05:06:18;;;;;;;3.47;2.50;;;;;;;18.43;48.82;95211.00;5038303;28;20425;-81
2021/06/29 05:08:43;;;;;;;3.67;2.50;;;;;;;18.31;48.36;95207.53;5054524;28;20104;-81
2021/06/29 05:11:09;;;;;;;4.65;2.75;;;;;;;18.39;48.67;95214.44;5063003;28;20065;-81
2021/06/29 05:13:34;;;;;;;4.25;2.67;;;;;;;18.35;48.20;95213.28;5071861;28;20118;-82
2021/06/29 05:16:00;;;;;;;3.25;2.95;;;;;;;18.29;48.27;95213.16;5055936;28;20154;-82
2021/06/29 05:18:25;;;;;;;3.03;2.45;;;;;;;18.44;48.48;95203.75;5046577;28;20117;-82
2021/06/29 05:20:51;;;;;;;4.68;2.35;;;;;;;18.40;48.16;95205.28;5028687;28;20564;-81
2021/06/29 05:23:16;;;;;;;4.22;2.50;;;;;;;18.40;48.32;95210.66;5051292;28;20502;-80
2021/06/29 05:25:42;;;;;;;2.83;2.55;;;;;;;18.32;48.55;95203.75;5056662;28;20078;-81
2021/06/29 05:28:07;;;;;;;5.07;2.70;;;;;;;18.10;48.47;95199.03;5060431;28;20605;-81
2021/06/29 05:30:33;;;;;;;3.22;2.88;;;;;;;18.42;47.51;95200.47;5065035;28;20088;-81
2021/06/29 05:32:58;;;;;;;3.60;2.70;;;;;;;18.48;47.65;95201.38;5074476;28;20121;-81
2021/06/29 05:35:25;;;;;;;5.05;2.88;;;;;;;18.34;48.11;95222.38;5054653;28;20111;-81
2021/06/29 05:37:50;;;;;;;2.80;2.60;;;;;;;18.25;48.32;95225.44;5040189;28;20445;-81
2021/06/29 05:40:16;;;;;;;4.40;2.75;;;;;;;18.48;47.00;95214.84;5036502;28;20104;-80
2021/06/29 05:42:41;;;;;;;4.18;2.50;;;;;;;18.43;48.00;95216.38;5057775;28;20093;-80
2021/06/29 05:45:07;;;;;;;2.72;2.53;;;;;;;18.30;46.57;95211.28;5072653;28;20105;-80
2021/06/29 05:47:35;;;;;;;2.92;2.60;;;;;;;18.25;46.08;95214.69;5054917;28;20100;-81
2021/06/29 05:50:01;;;;;;;4.45;3.10;;;;;;;18.31;46.00;95202.97;5057558;28;20105;-82
2021/06/29 05:52:27;;;;;;;3.00;2.70;;;;;;;18.18;45.72;95197.81;5062072;28;20135;-81
2021/06/29 05:54:52;;;;;;;3.65;3.00;;;;;;;18.34;45.74;95207.06;5061270;28;20080;-81
2021/06/29 05:57:18;;;;;;;3.97;3.50;;;;;;;18.42;47.34;95203.97;5045489;28;20402;-81
2021/06/29 05:59:43;;;;;;;7.18;4.50;;;;;;;18.42;46.01;95208.53;5057223;28;20105;-81
2021/06/29 06:02:09;;;;;;;7.55;6.53;;;;;;;18.44;45.42;95209.97;5048798;28;20093;-81
2021/06/29 06:04:35;;;;;;;7.28;4.75;;;;;;;18.63;46.21;95217.09;5070761;28;20110;-81
2021/06/29 06:07:00;;;;;;;9.02;5.22;;;;;;;18.68;45.61;95211.78;5049807;28;20097;-81
2021/06/29 06:09:26;;;;;;;10.10;7.05;;;;;;;18.69;45.70;95218.81;5050883;28;20575;-82
2021/06/29 06:11:51;;;;;;;7.63;4.70;;;;;;;18.78;46.24;95222.78;5026285;28;20491;-82
2021/06/29 06:14:17;;;;;;;5.97;4.70;;;;;;;18.71;46.78;95223.97;5061073;28;20158;-82
2021/06/29 06:16:42;;;;;;;7.57;2.95;;;;;;;17.72;48.08;95227.22;5054399;28;20106;-81
2021/06/29 06:19:08;;;;;;;5.47;2.80;;;;;;;17.78;48.98;95221.72;5031261;28;20432;-83
2021/06/29 06:21:33;;;;;;;11.25;8.27;;;;;;;17.92;48.20;95210.75;5035972;28;20450;-81
2021/06/29 06:23:59;;;;;;;10.82;7.55;;;;;;;18.23;46.91;95216.81;5021379;28;20101;-81
2021/06/29 06:26:24;;;;;;;15.50;12.75;;;;;;;18.18;46.51;95198.66;5032253;28;20100;-81
2021/06/29 06:28:50;;;;;;;11.68;7.50;;;;;;;18.64;45.92;95208.75;5026317;28;20210;-81
2021/06/29 06:31:16;;;;;;;10.43;6.35;;;;;;;18.35;46.58;95208.69;5035662;28;20181;-82
2021/06/29 06:33:41;;;;;;;15.57;13.27;;;;;;;18.35;45.94;95208.69;5032479;28;20084;-82
2021/06/29 06:36:07;;;;;;;17.85;11.95;;;;;;;18.69;45.67;95205.31;5046874;28;20533;-81
2021/06/29 06:38:33;;;;;;;5.93;3.90;;;;;;;18.96;45.46;95207.44;5047011;28;20423;-82
2021/06/29 06:40:58;;;;;;;10.98;8.48;;;;;;;18.76;46.53;95206.00;5029620;28;20117;-82
2021/06/29 06:43:24;;;;;;;12.25;9.88;;;;;;;19.10;45.07;95199.06;5047935;28;20607;-81
2021/06/29 06:45:49;;;;;;;11.77;9.40;;;;;;;19.49;44.05;95198.38;5065070;28;20381;-81
2021/06/29 06:48:15;;;;;;;6.68;4.72;;;;;;;19.63;44.06;95196.16;5058317;28;20100;-82
2021/06/29 06:50:41;;;;;;;7.43;5.47;;;;;;;19.64;43.52;95197.81;5060102;28;20077;-81
2021/06/29 06:53:07;;;;;;;10.40;6.70;;;;;;;19.17;44.84;95191.63;5038673;28;20131;-82
2021/06/29 06:55:32;;;;;;;3.55;2.65;;;;;;;19.37;44.71;95187.66;5027483;28;20105;-80
2021/06/29 06:57:58;;;;;;;4.15;2.90;;;;;;;19.21;44.79;95193.59;5058941;28;20085;-82
2021/06/29 07:00:24;;;;;;;4.28;3.25;;;;;;;19.22;44.37;95183.63;5061383;28;20109;-83
2021/06/29 07:02:50;;;;;;;4.70;2.65;;;;;;;19.38;44.40;95190.09;5020006;28;20570;-82
2021/06/29 07:05:16;;;;;;;3.78;3.17;;;;;;;19.63;43.80;95193.44;5055975;28;20177;-82
2021/06/29 07:07:42;;;;;;;4.73;2.90;;;;;;;19.08;45.02;95196.59;5044954;28;20121;-83
2021/06/29 07:10:08;;;;;;;4.43;3.10;;;;;;;19.50;44.44;95192.72;5043649;28;20359;-83
2021/06/29 07:12:33;;;;;;;3.63;2.67;;;;;;;19.71;44.29;95201.13;5042695;28;20107;-83
2021/06/29 07:14:59;;;;;;;3.05;2.78;;;;;;;19.46;43.86;95200.50;5027015;28;20413;-82
2021/06/29 07:17:25;;;;;;;5.22;4.03;;;;;;;19.13;45.31;95203.94;5017350;28;20771;-71
2021/06/29 07:19:51;;;;;;;5.85;3.50;;;;;;;18.92;45.25;95206.28;5048712;28;20115;-71
2021/06/29 07:22:17;;;;;;;3.22;2.80;;;;;;;19.04;45.08;95204.34;5048600;28;20086;-81
2021/06/29 07:24:43;;;;;;;3.70;3.03;;;;;;;19.20;44.97;95207.31;5045642;28;20180;-82
2021/06/29 07:27:09;;;;;;;3.38;3.08;;;;;;;18.84;45.65;95204.00;5024228;28;20104;-82
2021/06/29 07:29:34;;;;;;;6.15;2.90;;;;;;;18.95;45.25;95211.22;5055013;28;20078;-82
2021/06/29 07:32:00;;;;;;;3.20;2.80;;;;;;;18.95;45.02;95213.91;5025315;28;20159;-82
2021/06/29 07:34:25;;;;;;;5.47;3.20;;;;;;;18.81;45.32;95216.91;5028478;28;20079;-82
2021/06/29 07:36:51;;;;;;;3.70;3.38;;;;;;;18.47;46.86;95216.75;5045072;28;20178;-75
2021/06/29 07:39:16;;;;;;;9.70;5.82;;;;;;;19.11;44.86;95215.00;5073450;28;20105;-82
2021/06/29 07:41:42;;;;;;;4.80;3.00;;;;;;;19.04;45.87;95209.75;5026522;28;20088;-82
2021/06/29 07:44:07;;;;;;;5.47;2.75;;;;;;;19.40;44.08;95211.44;5036798;28;20116;-82
2021/06/29 07:46:33;;;;;;;11.98;10.10;;;;;;;18.66;45.94;95208.53;5032058;28;20077;-82
2021/06/29 07:48:58;;;;;;;4.65;3.00;;;;;;;19.43;43.88;95206.41;5040521;28;20105;-82
2021/06/29 07:51:23;;;;;;;6.75;3.00;;;;;;;19.71;43.53;95206.53;5042586;28;20097;-82
2021/06/29 07:53:49;;;;;;;6.57;3.00;;;;;;;19.56;44.79;95210.66;5037778;28;20070;-82
2021/06/29 07:56:15;;;;;;;4.95;2.90;;;;;;;20.05;43.16;95205.69;5067326;28;20410;-82
2021/06/29 07:58:42;;;;;;;5.63;2.88;;;;;;;20.28;42.42;95210.06;5046871;28;20085;-71
2021/06/29 08:01:07;;;;;;;3.95;2.80;;;;;;;20.16;42.48;95209.38;5041783;28;20518;-70
2021/06/29 08:03:33;;;;;;;8.10;4.35;;;;;;;19.46;43.57;95210.47;5045263;28;20112;-70
2021/06/29 08:05:58;;;;;;;5.07;2.97;;;;;;;19.96;43.24;95216.13;5053687;28;20089;-70
2021/06/29 08:08:24;;;;;;;4.35;2.55;;;;;;;20.29;42.81;95219.00;5051970;28;20109;-71
2021/06/29 08:10:49;;;;;;;4.00;2.60;;;;;;;20.32;42.41;95215.78;5057326;28;20162;-70
2021/06/29 08:13:15;;;;;;;3.03;2.63;;;;;;;20.38;41.21;95212.09;5053658;28;20077;-71
2021/06/29 08:15:40;;;;;;;3.05;2.45;;;;;;;20.44;41.00;95207.56;5047715;28;20562;-70
2021/06/29 08:18:06;;;;;;;5.00;2.90;;;;;;;20.57;41.10;95207.16;5050865;28;20119;-70
2021/06/29 08:20:31;;;;;;;7.38;4.85;;;;;;;20.46;41.53;95206.22;5040576;28;20109;-70
2021/06/29 08:22:57;;;;;;;4.25;2.25;;;;;;;20.70;40.56;95205.19;5053168;28;20140;-70
2021/06/29 08:25:23;;;;;;;6.70;2.40;;;;;;;20.76;40.06;95209.56;5033954;28;20091;-71
2021/06/29 08:27:49;;;;;;;3.88;2.40;;;;;;;20.78;40.74;95204.75;5056864;28;20100;-71
2021/06/29 08:30:15;;;;;;;4.07;2.58;;;;;;;20.65;40.77;95211.34;5071116;28;20084;-71
2021/06/29 08:32:40;;;;;;;3.45;2.42;;;;;;;20.77;39.95;95208.50;5054217;28;20237;-69
2021/06/29 08:35:07;;;;;;;5.70;3.00;;;;;;;21.05;39.45;95205.81;5070845;28;20484;-70
2021/06/29 08:37:32;;;;;;;3.35;2.40;;;;;;;21.26;39.40;95201.41;5052348;28;20121;-70
2021/06/29 08:39:58;;;;;;;3.60;2.20;;;;;;;20.69;39.99;95208.94;5028447;28;20104;-70
2021/06/29 08:42:23;;;;;;;5.70;2.53;;;;;;;17.75;46.17;95206.03;5046781;28;20089;-71
2021/06/29 08:44:49;;;;;;;2.75;2.13;;;;;;;18.86;43.91;95207.28;5059318;28;20175;-71
2021/06/29 08:47:14;;;;;;;6.07;3.33;;;;;;;20.00;42.69;95203.75;5048192;28;20112;-70
2021/06/29 08:49:40;;;;;;;2.55;2.05;;;;;;;21.18;38.86;95204.59;5045899;28;20142;-70
2021/06/29 08:52:06;;;;;;;2.10;2.00;;;;;;;21.35;38.47;95199.88;5042785;28;20105;-70
2021/06/29 08:54:32;;;;;;;3.87;3.20;;;;;;;21.71;38.15;95185.00;5061365;28;20441;-70
2021/06/29 08:56:58;;;;;;;6.65;3.10;;;;;;;21.88;37.60;95190.25;5031531;28;20120;-71
2021/06/29 08:59:23;;;;;;;2.45;2.20;;;;;;;22.04;38.47;95185.78;5044716;28;20119;-70
2021/06/29 09:01:49;;;;;;;2.40;2.20;;;;;;;22.37;37.77;95185.66;5050873;28;20474;-71
2021/06/29 09:04:14;;;;;;;3.85;2.40;;;;;;;20.92;38.70;95190.81;5046898;28;20101;-71
2021/06/29 09:06:40;;;;;;;4.32;2.10;;;;;;;22.05;37.15;95181.97;5026073;28;20560;-72
2021/06/29 09:09:27;;;;;;;4.88;2.40;;;;;;;22.25;36.50;95178.56;5034665;28;20323;-71
2021/06/29 09:11:53;;;;;;;4.82;2.20;;;;;;;22.31;36.07;95176.69;5058057;28;20616;-70
2021/06/29 09:14:19;;;;;;;2.70;1.90;;;;;;;21.56;38.15;95185.72;5046604;28;20089;-70
2021/06/29 09:16:46;;;;;;;5.80;3.47;;;;;;;21.96;37.58;95170.03;5049286;28;20115;-72
2021/06/29 09:19:11;;;;;;;4.88;2.47;;;;;;;22.06;37.01;95175.47;5044758;28;20554;-71
2021/06/29 09:21:37;;;;;;;2.10;2.00;;;;;;;22.00;37.61;95181.97;5050717;28;20084;-72
2021/06/29 09:24:04;;;;;;;2.85;1.70;;;;;;;22.03;36.64;95181.44;5031067;28;20101;-71
2021/06/29 09:26:29;;;;;;;2.80;1.70;;;;;;;22.45;35.33;95174.31;5066942;28;20385;-71
2021/06/29 09:29:02;;;;;;;2.90;1.70;;;;;;;22.49;36.53;95180.81;5073175;28;20523;-72
2021/06/29 09:31:29;;;;;;;2.58;1.83;;;;;;;23.00;35.53;95189.38;5051056;28;20474;-70
2021/06/29 09:33:59;;;;;;;5.00;2.67;;;;;;;22.65;35.48;95181.72;5030279;28;20440;-71
2021/06/29 09:36:26;;;;;;;1.88;1.77;;;;;;;22.97;34.58;95187.25;5047019;28;20488;-70
2021/06/29 09:38:53;;;;;;;3.90;2.38;;;;;;;21.93;37.32;95194.91;5063529;28;20081;-70
2021/06/29 09:41:19;;;;;;;2.22;2.03;;;;;;;21.75;38.04;95191.50;5061642;28;20101;-70
2021/06/29 09:43:53;;;;;;;7.55;2.63;;;;;;;21.60;36.93;95193.06;5064563;28;20487;-70
2021/06/29 09:46:19;;;;;;;3.10;2.75;;;;;;;22.28;35.43;95185.34;5089978;28;20622;-70
2021/06/29 09:48:56;;;;;;;3.17;2.40;;;;;;;22.37;36.52;95191.88;5068540;28;20112;-71
2021/06/29 09:51:25;;;;;;;3.58;2.17;;;;;;;21.86;37.07;95203.25;5055774;28;20109;-72
2021/06/29 09:53:52;;;;;;;3.17;2.30;;;;;;;22.09;36.17;95190.41;5021294;28;20491;-69
2021/06/29 09:56:19;;;;;;;5.50;2.25;;;;;;;20.58;39.05;95191.78;5060302;28;20140;-71
2021/06/29 09:58:51;;;;;;;2.75;1.88;;;;;;;21.86;36.30;95189.72;5052303;28;20596;-70
2021/06/29 10:01:18;;;;;;;3.13;2.15;;;;;;;22.07;35.95;95187.97;5054912;28;20653;-71
2021/06/29 10:03:44;;;;;;;;;;;;;;;21.89;35.75;95190.00;5068853;28;20105;-71
2021/06/29 10:06:12;;;;;;;1.97;1.80;;;;;;;21.87;37.35;95191.34;5060907;28;19987;-71
2021/06/29 10:08:39;;;;;;;2.13;1.88;;;;;;;21.35;36.33;95180.94;5076766;28;20105;-72
2021/06/29 10:11:09;;;;;;;2.65;1.80;;;;;;;21.89;36.47;95179.16;5070693;28;20074;-71
2021/06/29 10:13:36;;;;;;;3.65;2.60;;;;;;;21.66;37.38;95174.97;5061323;28;20073;-72
2021/06/29 10:16:02;;;;;;;3.25;1.67;;;;;;;22.12;36.60;95179.03;5080314;28;20097;-72
2021/06/29 10:18:32;;;;;;;3.40;1.58;;;;;;;21.94;37.09;95169.44;5061351;28;20077;-70
2021/06/29 10:21:01;;;;;;;4.85;1.60;;;;;;;20.95;37.11;95182.19;5076014;28;20651;-71
2021/06/29 10:23:26;;;;;;;2.20;1.48;;;;;;;19.85;39.44;95167.31;5059073;28;20108;-71
2021/06/29 10:25:52;;;;;;;3.45;1.48;;;;;;;21.06;36.55;95156.84;5073251;28;20076;-71
2021/06/29 10:28:18;;;;;;;1.45;1.40;;;;;;;20.86;37.55;95161.00;5054581;28;20101;-71
2021/06/29 10:30:44;;;;;;;1.60;1.50;;;;;;;21.73;34.89;95156.59;5064587;28;20089;-71
2021/06/29 10:33:11;;;;;;;2.25;1.27;;;;;;;22.63;33.81;95155.94;5068582;28;20124;-71
2021/06/29 10:35:36;;;;;;;3.78;1.30;;;;;;;23.08;32.55;95158.19;5065073;28;20112;-72
2021/06/29 10:38:02;;;;;;;2.22;1.20;;;;;;;23.64;32.80;95145.72;5073671;28;20526;-71
2021/06/29 10:40:28;;;;;;;2.55;1.58;;;;;;;23.63;34.90;95149.53;5080572;28;20120;-71
2021/06/29 10:42:57;;;;;;;3.30;1.55;;;;;;;23.98;32.31;95138.88;5041129;28;20088;-71
2021/06/29 10:45:23;;;;;;;2.10;1.60;;;;;;;23.30;34.50;95147.09;5051618;28;20139;-72
2021/06/29 10:47:48;;;;;;;3.33;1.60;;;;;;;23.65;34.80;95137.28;5081221;28;20117;-71
2021/06/29 10:50:16;;;;;;;3.28;1.55;;;;;;;23.56;34.20;95133.50;5066103;28;20080;-71
2021/06/29 10:52:45;;;;;;;2.20;1.50;;;;;;;23.84;31.19;95135.91;5045031;28;20097;-72
2021/06/29 10:55:26;;;;;;;1.95;1.48;;;;;;;24.21;32.82;95137.44;5067176;28;20101;-71
2021/06/29 10:57:56;;;;;;;1.77;1.30;;;;;;;24.14;32.75;95136.94;5078013;28;20160;-71
2021/06/29 11:00:23;;;;;;;2.60;1.60;;;;;;;25.00;29.66;95132.44;5062251;28;20566;-71
2021/06/29 11:02:59;;;;;;;4.35;1.35;;;;;;;25.14;30.40;95136.16;5057245;28;20077;-72
2021/06/29 11:05:25;;;;;;;1.45;1.35;;;;;;;25.56;29.27;95124.94;5061842;28;20115;-72
2021/06/29 11:07:51;;;;;;;;;;;;;;;25.75;28.76;95137.81;5064124;28;20472;-71
2021/06/29 11:10:30;;;;;;;4.80;1.57;;;;;;;25.38;28.70;95126.41;5063928;28;19977;-72
2021/06/29 11:12:58;;;;;;;1.85;1.50;;;;;;;24.76;28.76;95131.22;5067326;28;20639;-72
2021/06/29 11:15:52;;;;;;;1.40;1.30;;;;;;;25.18;28.43;95130.94;5075025;28;20096;-71
2021/06/29 11:18:39;;;;;;;1.85;1.52;;;;;;;25.59;27.40;95113.44;5081071;28;20126;-72
2021/06/29 11:21:06;;;;;;;3.28;1.60;;;;;;;26.18;27.54;95112.56;5079490;28;20447;-70
2021/06/29 11:23:35;;;;;;;3.20;1.42;;;;;;;26.64;27.82;95113.91;5068067;28;20112;-72
2021/06/29 11:26:20;;;;;;;4.85;1.80;;;;;;;25.20;29.96;95121.41;5074076;28;20089;-71
2021/06/29 11:28:47;;;;;;;5.30;2.63;;;;;;;25.78;28.77;95115.44;5064449;28;20116;-70
2021/06/29 11:31:22;;;;;;;2.30;1.58;;;;;;;25.30;29.08;95111.50;5063765;28;20545;-70
2021/06/29 11:33:53;;;;;;;2.38;1.60;;;;;;;25.09;29.84;95117.13;5050836;28;20093;-71